^^
Saratoga-Weather Station Historical Data
Daily Summary for May 5, 2021 Units:  Both    English   Metric
Daily Weekly Monthly Yearly Custom
  High: Low: Average:
Temperature: 52 °F /  11.1 °C 42.3 °F /  5.7 °C 46.6 °F /  8.1 °C
Dew Point: 44.8 °F /  7.1 °C 40.3 °F /  4.6 °C 43.2 °F /  6.2 °C
Humidity: 95% 72% 88%
Wind Speed: 9mph /  14.5km/h - 1.6mph /  2.5km/h
Wind Gust: 9mph /  14.5km/h - -
Wind- - West
Pressure: 30.4 in /  1028.8 hPa 30 in /  1014.2 hPa -
Precipitation: 0 in /  0.0 mm    
Historical Graphs
 
 
Tabular Data for May 5, 2021
Time Temperature Dew Point Pressure Wind Wind Speed Wind Gust Humidity Rainfall Rate (Hourly) solar
00:04 44.8 °F /  7.1 °C 43.5 °F /  6.4 °C 30in /  1014.2hPa West 2.9mph /  4.7km/h 4mph /  6.4km/h 95% 0in /  0.0mm 0 W/m2
00:09 44.8 °F /  7.1 °C 43.5 °F /  6.4 °C 30in /  1014.2hPa West 2mph /  3.2km/h 3mph /  4.8km/h 95% 0in /  0.0mm 0 W/m2
00:14 44.8 °F /  7.1 °C 43.5 °F /  6.4 °C 30in /  1014.2hPa West 2mph /  3.2km/h 4mph /  6.4km/h 95% 0in /  0.0mm 0 W/m2
00:19 44.8 °F /  7.1 °C 43.5 °F /  6.4 °C 30in /  1014.2hPa WSW 2.9mph /  4.7km/h 5mph /  8km/h 95% 0in /  0.0mm 0 W/m2
00:24 44.8 °F /  7.1 °C 43.5 °F /  6.4 °C 30in /  1014.6hPa West 2mph /  3.2km/h 4mph /  6.4km/h 95% 0in /  0.0mm 0 W/m2
00:29 44.8 °F /  7.1 °C 43.5 °F /  6.4 °C 30in /  1014.6hPa WNW 4mph /  6.4km/h 5mph /  8km/h 95% 0in /  0.0mm 0 W/m2
00:34 44.8 °F /  7.1 °C 43.5 °F /  6.4 °C 30in /  1014.6hPa WNW 2.9mph /  4.7km/h 7mph /  11.3km/h 95% 0in /  0.0mm 0 W/m2
00:39 44.8 °F /  7.1 °C 43.5 °F /  6.4 °C 30in /  1014.6hPa West 2.9mph /  4.7km/h 6mph /  9.7km/h 95% 0in /  0.0mm 0 W/m2
00:44 45 °F /  7.2 °C 43.7 °F /  6.5 °C 30in /  1014.6hPa SW 2mph /  3.2km/h 6mph /  9.7km/h 95% 0in /  0.0mm 0 W/m2
00:49 45 °F /  7.2 °C 43.7 °F /  6.5 °C 30in /  1014.6hPa West 2.9mph /  4.7km/h 9mph /  14.5km/h 95% 0in /  0.0mm 0 W/m2
00:54 45 °F /  7.2 °C 43.7 °F /  6.5 °C 30in /  1014.6hPa WSW 4.9mph /  7.9km/h 8mph /  12.9km/h 95% 0in /  0.0mm 0 W/m2
00:59 45.1 °F /  7.3 °C 43.9 °F /  6.6 °C 30in /  1014.9hPa West 2mph /  3.2km/h 9mph /  14.5km/h 95% 0in /  0.0mm 0 W/m2
01:04 45.1 °F /  7.3 °C 43.9 °F /  6.6 °C 30in /  1014.6hPa WNW 6mph /  9.7km/h 7mph /  11.3km/h 95% 0in /  0.0mm 0 W/m2
01:09 45.1 °F /  7.3 °C 43.9 °F /  6.6 °C 30in /  1014.9hPa West 2.9mph /  4.7km/h 7mph /  11.3km/h 95% 0in /  0.0mm 0 W/m2
01:14 45.3 °F /  7.4 °C 44.1 °F /  6.7 °C 30in /  1014.9hPa West 2.9mph /  4.7km/h 6mph /  9.7km/h 95% 0in /  0.0mm 0 W/m2
01:19 45.3 °F /  7.4 °C 44.1 °F /  6.7 °C 30in /  1014.9hPa SW 2mph /  3.2km/h 3mph /  4.8km/h 95% 0in /  0.0mm 0 W/m2
01:24 45.3 °F /  7.4 °C 44.1 °F /  6.7 °C 30in /  1014.9hPa West 2mph /  3.2km/h 4mph /  6.4km/h 95% 0in /  0.0mm 0 W/m2
01:29 45.3 °F /  7.4 °C 44.1 °F /  6.7 °C 30in /  1014.9hPa WSW 2.9mph /  4.7km/h 4mph /  6.4km/h 95% 0in /  0.0mm 0 W/m2
01:34 45.3 °F /  7.4 °C 44.1 °F /  6.7 °C 30in /  1014.9hPa West 4mph /  6.4km/h 6mph /  9.7km/h 95% 0in /  0.0mm 0 W/m2
01:39 45.3 °F /  7.4 °C 43.7 °F /  6.5 °C 30in /  1014.9hPa West 6mph /  9.7km/h 7mph /  11.3km/h 94% 0in /  0.0mm 0 W/m2
01:44 45.5 °F /  7.5 °C 43.9 °F /  6.6 °C 30in /  1014.9hPa WNW 2.9mph /  4.7km/h 7mph /  11.3km/h 94% 0in /  0.0mm 0 W/m2
01:49 45.7 °F /  7.6 °C 44.1 °F /  6.7 °C 30in /  1015.2hPa WNW 4mph /  6.4km/h 6mph /  9.7km/h 94% 0in /  0.0mm 0 W/m2
01:54 45.7 °F /  7.6 °C 44.1 °F /  6.7 °C 30in /  1015.2hPa WNW 6mph /  9.7km/h 7mph /  11.3km/h 94% 0in /  0.0mm 0 W/m2
01:59 45.7 °F /  7.6 °C 44.1 °F /  6.7 °C 30in /  1015.2hPa West 4mph /  6.4km/h 5mph /  8km/h 94% 0in /  0.0mm 0 W/m2
02:04 45.7 °F /  7.6 °C 44.1 °F /  6.7 °C 30in /  1015.2hPa WSW 6mph /  9.7km/h 7mph /  11.3km/h 94% 0in /  0.0mm 0 W/m2
02:09 45.9 °F /  7.7 °C 44.2 °F /  6.8 °C 30in /  1015.2hPa West 6.9mph /  11.1km/h 9mph /  14.5km/h 94% 0in /  0.0mm 0 W/m2
02:14 45.9 °F /  7.7 °C 44.2 °F /  6.8 °C 30in /  1015.2hPa West 2.9mph /  4.7km/h 7mph /  11.3km/h 94% 0in /  0.0mm 0 W/m2
02:19 45.9 °F /  7.7 °C 44.2 °F /  6.8 °C 30in /  1015.2hPa WNW 9mph /  14.5km/h 9mph /  14.5km/h 94% 0in /  0.0mm 0 W/m2
02:24 45.9 °F /  7.7 °C 44.2 °F /  6.8 °C 30in /  1015.2hPa West 2.9mph /  4.7km/h 6mph /  9.7km/h 94% 0in /  0.0mm 0 W/m2
02:29 45.9 °F /  7.7 °C 43.9 °F /  6.6 °C 30in /  1015.2hPa West 2.9mph /  4.7km/h 6mph /  9.7km/h 93% 0in /  0.0mm 0 W/m2
02:34 45.9 °F /  7.7 °C 43.9 °F /  6.6 °C 30in /  1015.2hPa West 2mph /  3.2km/h 7mph /  11.3km/h 93% 0in /  0.0mm 0 W/m2
02:39 45.9 °F /  7.7 °C 43.9 °F /  6.6 °C 30in /  1015.2hPa SW 0.9mph /  1.4km/h 2mph /  3.2km/h 93% 0in /  0.0mm 0 W/m2
02:44 45.9 °F /  7.7 °C 43.9 °F /  6.6 °C 30in /  1015.6hPa WSW 4mph /  6.4km/h 7mph /  11.3km/h 93% 0in /  0.0mm 0 W/m2
02:49 45.9 °F /  7.7 °C 43.9 °F /  6.6 °C 30in /  1015.6hPa West 2mph /  3.2km/h 3mph /  4.8km/h 93% 0in /  0.0mm 0 W/m2
02:54 45.9 °F /  7.7 °C 43.9 °F /  6.6 °C 30in /  1015.6hPa West 2.9mph /  4.7km/h 4mph /  6.4km/h 93% 0in /  0.0mm 0 W/m2
02:59 45.7 °F /  7.6 °C 43.7 °F /  6.5 °C 30in /  1015.6hPa West 4mph /  6.4km/h 8mph /  12.9km/h 93% 0in /  0.0mm 0 W/m2
03:04 45.7 °F /  7.6 °C 43.7 °F /  6.5 °C 30in /  1015.6hPa WNW 6.9mph /  11.1km/h 8mph /  12.9km/h 93% 0in /  0.0mm 0 W/m2
03:09 45.7 °F /  7.6 °C 43.7 °F /  6.5 °C 30in /  1015.6hPa WNW 4mph /  6.4km/h 7mph /  11.3km/h 93% 0in /  0.0mm 0 W/m2
03:14 45.7 °F /  7.6 °C 43.7 °F /  6.5 °C 30in /  1015.9hPa WNW 6.9mph /  11.1km/h 7mph /  11.3km/h 93% 0in /  0.0mm 0 W/m2
03:19 45.5 °F /  7.5 °C 43.5 °F /  6.4 °C 30in /  1015.9hPa WSW 4.9mph /  7.9km/h 8mph /  12.9km/h 93% 0in /  0.0mm 0 W/m2
03:24 45.5 °F /  7.5 °C 43.5 °F /  6.4 °C 30in /  1015.9hPa NW 2.9mph /  4.7km/h 6mph /  9.7km/h 93% 0in /  0.0mm 0 W/m2
03:29 45.3 °F /  7.4 °C 43.3 °F /  6.3 °C 30in /  1015.9hPa Calm   8mph /  12.9km/h 93% 0in /  0.0mm 0 W/m2
03:34 45.3 °F /  7.4 °C 43.3 °F /  6.3 °C 30in /  1016.3hPa West 2mph /  3.2km/h 4mph /  6.4km/h 93% 0in /  0.0mm 0 W/m2
03:39 45.1 °F /  7.3 °C 43.2 °F /  6.2 °C 30in /  1016.3hPa WSW 2mph /  3.2km/h 3mph /  4.8km/h 93% 0in /  0.0mm 0 W/m2
03:44 45.1 °F /  7.3 °C 43.2 °F /  6.2 °C 30in /  1016.3hPa Calm   3mph /  4.8km/h 93% 0in /  0.0mm 0 W/m2
03:49 45.1 °F /  7.3 °C 43.2 °F /  6.2 °C 30in /  1016.3hPa Calm   3mph /  4.8km/h 93% 0in /  0.0mm 0 W/m2
03:54 45 °F /  7.2 °C 43 °F /  6.1 °C 30in /  1016.3hPa WNW 2.9mph /  4.7km/h 4mph /  6.4km/h 93% 0in /  0.0mm 0 W/m2
03:59 45 °F /  7.2 °C 43 °F /  6.1 °C 30in /  1016.3hPa West 2mph /  3.2km/h 4mph /  6.4km/h 93% 0in /  0.0mm 0 W/m2
04:04 44.8 °F /  7.1 °C 42.8 °F /  6 °C 30in /  1016.3hPa West 2.9mph /  4.7km/h 3mph /  4.8km/h 93% 0in /  0.0mm 0 W/m2
04:09 44.8 °F /  7.1 °C 43.2 °F /  6.2 °C 30in /  1016.3hPa West 4mph /  6.4km/h 4mph /  6.4km/h 94% 0in /  0.0mm 0 W/m2
04:14 44.8 °F /  7.1 °C 43.2 °F /  6.2 °C 30in /  1016.3hPa West 2mph /  3.2km/h 4mph /  6.4km/h 94% 0in /  0.0mm 0 W/m2
04:19 44.8 °F /  7.1 °C 43.2 °F /  6.2 °C 30in /  1016.3hPa West 2mph /  3.2km/h 4mph /  6.4km/h 94% 0in /  0.0mm 0 W/m2
04:24 44.8 °F /  7.1 °C 43.2 °F /  6.2 °C 30in /  1016.6hPa WNW 2.9mph /  4.7km/h 3mph /  4.8km/h 94% 0in /  0.0mm 0 W/m2
04:29 44.6 °F /  7 °C 43 °F /  6.1 °C 30in /  1016.6hPa Calm     94% 0in /  0.0mm 0 W/m2
04:34 44.4 °F /  6.9 °C 42.8 °F /  6 °C 30in /  1016.6hPa Calm   1mph /  1.6km/h 94% 0in /  0.0mm 0 W/m2
04:39 44.4 °F /  6.9 °C 42.8 °F /  6 °C 30in /  1016.9hPa Calm     94% 0in /  0.0mm 0 W/m2
04:44 44.2 °F /  6.8 °C 42.6 °F /  5.9 °C 30in /  1016.9hPa Calm     94% 0in /  0.0mm 0 W/m2
04:49 44.2 °F /  6.8 °C 42.6 °F /  5.9 °C 30in /  1016.9hPa WNW 0.9mph /  1.4km/h 2mph /  3.2km/h 94% 0in /  0.0mm 0 W/m2
04:54 44.2 °F /  6.8 °C 42.6 °F /  5.9 °C 30in /  1016.9hPa WNW 0.9mph /  1.4km/h 3mph /  4.8km/h 94% 0in /  0.0mm 0 W/m2
04:59 44.2 °F /  6.8 °C 42.6 °F /  5.9 °C 30in /  1017.3hPa WNW 2mph /  3.2km/h 2mph /  3.2km/h 94% 0in /  0.0mm 0 W/m2
05:04 44.2 °F /  6.8 °C 43 °F /  6.1 °C 30in /  1017.3hPa WNW 2mph /  3.2km/h 3mph /  4.8km/h 95% 0in /  0.0mm 0 W/m2
05:09 44.4 °F /  6.9 °C 43.2 °F /  6.2 °C 30in /  1017.3hPa WNW 2.9mph /  4.7km/h 6mph /  9.7km/h 95% 0in /  0.0mm 0 W/m2
05:14 44.6 °F /  7 °C 43.3 °F /  6.3 °C 30in /  1017.3hPa West 2mph /  3.2km/h 4mph /  6.4km/h 95% 0in /  0.0mm 0 W/m2
05:19 44.8 °F /  7.1 °C 43.5 °F /  6.4 °C 30.1in /  1017.6hPa West 2mph /  3.2km/h 3mph /  4.8km/h 95% 0in /  0.0mm 0 W/m2
05:24 44.8 °F /  7.1 °C 43.2 °F /  6.2 °C 30.1in /  1017.6hPa West 2.9mph /  4.7km/h 3mph /  4.8km/h 94% 0in /  0.0mm 0 W/m2
05:29 44.8 °F /  7.1 °C 43.2 °F /  6.2 °C 30.1in /  1017.6hPa West 2.9mph /  4.7km/h 4mph /  6.4km/h 94% 0in /  0.0mm 0 W/m2
05:34 45 °F /  7.2 °C 43.3 °F /  6.3 °C 30.1in /  1017.6hPa WNW 2mph /  3.2km/h 2mph /  3.2km/h 94% 0in /  0.0mm 0 W/m2
05:39 45 °F /  7.2 °C 43.3 °F /  6.3 °C 30.1in /  1018.0hPa West 2mph /  3.2km/h 3mph /  4.8km/h 94% 0in /  0.0mm 0 W/m2
05:44 45 °F /  7.2 °C 43.3 °F /  6.3 °C 30.1in /  1018.0hPa West 2mph /  3.2km/h 4mph /  6.4km/h 94% 0in /  0.0mm 0 W/m2
05:49 45 °F /  7.2 °C 43.3 °F /  6.3 °C 30.1in /  1018.0hPa West 0.9mph /  1.4km/h 4mph /  6.4km/h 94% 0in /  0.0mm 0 W/m2
05:54 45 °F /  7.2 °C 43.3 °F /  6.3 °C 30.1in /  1018.0hPa WSW 2.9mph /  4.7km/h 3mph /  4.8km/h 94% 0in /  0.0mm 0 W/m2
05:59 45 °F /  7.2 °C 43.3 °F /  6.3 °C 30.1in /  1018.0hPa WSW 2mph /  3.2km/h 6mph /  9.7km/h 94% 0in /  0.0mm 0 W/m2
06:04 45 °F /  7.2 °C 43.3 °F /  6.3 °C 30.1in /  1018.0hPa West 0.9mph /  1.4km/h 3mph /  4.8km/h 94% 0in /  0.0mm 0 W/m2
06:09 45 °F /  7.2 °C 43.3 °F /  6.3 °C 30.1in /  1018.0hPa WNW 0.9mph /  1.4km/h 5mph /  8km/h 94% 0in /  0.0mm 0 W/m2
06:14 45.1 °F /  7.3 °C 43.5 °F /  6.4 °C 30.1in /  1018.3hPa West 0.9mph /  1.4km/h 3mph /  4.8km/h 94% 0in /  0.0mm 0 W/m2
06:19 45.1 °F /  7.3 °C 43.5 °F /  6.4 °C 30.1in /  1018.3hPa West 2.9mph /  4.7km/h 3mph /  4.8km/h 94% 0in /  0.0mm 0 W/m2
06:24 45.1 °F /  7.3 °C 43.5 °F /  6.4 °C 30.1in /  1018.3hPa WNW 0.9mph /  1.4km/h 3mph /  4.8km/h 94% 0in /  0.0mm 0 W/m2
06:29 45.1 °F /  7.3 °C 43.2 °F /  6.2 °C 30.1in /  1018.3hPa WNW 0.9mph /  1.4km/h 2mph /  3.2km/h 93% 0in /  0.0mm 0 W/m2
06:35 45.1 °F /  7.3 °C 43.2 °F /  6.2 °C 30.1in /  1018.6hPa WNW 0.9mph /  1.4km/h 3mph /  4.8km/h 93% 0in /  0.0mm 0 W/m2
06:40 45.1 °F /  7.3 °C 43.2 °F /  6.2 °C 30.1in /  1018.6hPa West 2mph /  3.2km/h 2mph /  3.2km/h 93% 0in /  0.0mm 0 W/m2
06:45 45.1 °F /  7.3 °C 43.5 °F /  6.4 °C 30.1in /  1018.6hPa West 2mph /  3.2km/h 3mph /  4.8km/h 94% 0in /  0.0mm 0 W/m2
06:50 45.1 °F /  7.3 °C 43.5 °F /  6.4 °C 30.1in /  1018.6hPa SW 2.9mph /  4.7km/h 3mph /  4.8km/h 94% 0in /  0.0mm 0 W/m2
06:55 45.1 °F /  7.3 °C 43.5 °F /  6.4 °C 30.1in /  1019.0hPa Calm   1mph /  1.6km/h 94% 0in /  0.0mm 0 W/m2
07:00 45.1 °F /  7.3 °C 43.5 °F /  6.4 °C 30.1in /  1019.0hPa Calm   2mph /  3.2km/h 94% 0in /  0.0mm 0 W/m2
07:05 45.1 °F /  7.3 °C 43.5 °F /  6.4 °C 30.1in /  1019.0hPa Calm   2mph /  3.2km/h 94% 0in /  0.0mm 0 W/m2
07:10 45.1 °F /  7.3 °C 43.5 °F /  6.4 °C 30.1in /  1019.0hPa Calm     94% 0in /  0.0mm 0 W/m2
07:15 45.1 °F /  7.3 °C 43.5 °F /  6.4 °C 30.1in /  1019.0hPa Calm     94% 0in /  0.0mm 0 W/m2
07:20 45.1 °F /  7.3 °C 43.5 °F /  6.4 °C 30.1in /  1019.3hPa Calm     94% 0in /  0.0mm 0 W/m2
07:25 45.1 °F /  7.3 °C 43.5 °F /  6.4 °C 30.1in /  1019.3hPa Calm     94% 0in /  0.0mm 0 W/m2
07:30 45.1 °F /  7.3 °C 43.5 °F /  6.4 °C 30.1in /  1019.3hPa Calm     94% 0in /  0.0mm 0 W/m2
07:35 45.1 °F /  7.3 °C 43.5 °F /  6.4 °C 30.1in /  1019.6hPa Calm     94% 0in /  0.0mm 0 W/m2
07:40 45 °F /  7.2 °C 43.3 °F /  6.3 °C 30.1in /  1019.6hPa Calm     94% 0in /  0.0mm 0 W/m2
07:45 45 °F /  7.2 °C 43.3 °F /  6.3 °C 30.1in /  1019.6hPa Calm     94% 0in /  0.0mm 0 W/m2
07:50 45 °F /  7.2 °C 43.3 °F /  6.3 °C 30.1in /  1019.6hPa Calm     94% 0in /  0.0mm 5 W/m2
07:55 45 °F /  7.2 °C 43.3 °F /  6.3 °C 30.1in /  1019.6hPa Calm     94% 0in /  0.0mm 7 W/m2
08:00 45 °F /  7.2 °C 43.3 °F /  6.3 °C 30.1in /  1020.0hPa Calm     94% 0in /  0.0mm 9 W/m2
08:05 45 °F /  7.2 °C 43.3 °F /  6.3 °C 30.1in /  1020.0hPa Calm     94% 0in /  0.0mm 11 W/m2
08:10 45 °F /  7.2 °C 43.3 °F /  6.3 °C 30.1in /  1020.0hPa Calm     94% 0in /  0.0mm 14 W/m2
08:15 45 °F /  7.2 °C 43.3 °F /  6.3 °C 30.1in /  1020.3hPa Calm   1mph /  1.6km/h 94% 0in /  0.0mm 21 W/m2
08:20 45.1 °F /  7.3 °C 43.5 °F /  6.4 °C 30.1in /  1020.3hPa Calm     94% 0in /  0.0mm 30 W/m2
08:25 45.1 °F /  7.3 °C 43.5 °F /  6.4 °C 30.1in /  1020.3hPa Calm     94% 0in /  0.0mm 40 W/m2
08:30 45.1 °F /  7.3 °C 43.5 °F /  6.4 °C 30.1in /  1020.7hPa Calm     94% 0in /  0.0mm 46 W/m2
08:35 45.1 °F /  7.3 °C 43.5 °F /  6.4 °C 30.1in /  1020.7hPa West 0.9mph /  1.4km/h 2mph /  3.2km/h 94% 0in /  0.0mm 47 W/m2
08:40 45.3 °F /  7.4 °C 43.7 °F /  6.5 °C 30.1in /  1020.7hPa WNW 2mph /  3.2km/h 3mph /  4.8km/h 94% 0in /  0.0mm 51 W/m2
08:45 45.3 °F /  7.4 °C 43.3 °F /  6.3 °C 30.1in /  1020.7hPa WSW 2.9mph /  4.7km/h 4mph /  6.4km/h 93% 0in /  0.0mm 56 W/m2
08:50 45.5 °F /  7.5 °C 43.5 °F /  6.4 °C 30.2in /  1021.0hPa West 2mph /  3.2km/h 3mph /  4.8km/h 93% 0in /  0.0mm 76 W/m2
08:55 45.7 °F /  7.6 °C 43.7 °F /  6.5 °C 30.2in /  1021.0hPa West 2mph /  3.2km/h 4mph /  6.4km/h 93% 0in /  0.0mm 84 W/m2
09:00 45.9 °F /  7.7 °C 43.7 °F /  6.5 °C 30.2in /  1021.3hPa West 2mph /  3.2km/h 5mph /  8km/h 92% 0in /  0.0mm 84 W/m2
09:05 46 °F /  7.8 °C 43.5 °F /  6.4 °C 30.2in /  1021.3hPa WNW 2mph /  3.2km/h 3mph /  4.8km/h 91% 0in /  0.0mm 90 W/m2
09:10 46 °F /  7.8 °C 43.5 °F /  6.4 °C 30.2in /  1021.3hPa WSW 2mph /  3.2km/h 3mph /  4.8km/h 91% 0in /  0.0mm 91 W/m2
09:15 46.2 °F /  7.9 °C 43.5 °F /  6.4 °C 30.2in /  1021.3hPa NW 2.9mph /  4.7km/h 4mph /  6.4km/h 90% 0in /  0.0mm 72 W/m2
09:20 46.4 °F /  8 °C 43.3 °F /  6.3 °C 30.2in /  1021.3hPa WNW 2.9mph /  4.7km/h 4mph /  6.4km/h 89% 0in /  0.0mm 72 W/m2
09:25 46.6 °F /  8.1 °C 43.5 °F /  6.4 °C 30.2in /  1021.3hPa WNW 0.9mph /  1.4km/h 3mph /  4.8km/h 89% 0in /  0.0mm 74 W/m2
09:30 46.6 °F /  8.1 °C 43.5 °F /  6.4 °C 30.2in /  1021.7hPa WNW 2.9mph /  4.7km/h 5mph /  8km/h 89% 0in /  0.0mm 60 W/m2
09:35 46.6 °F /  8.1 °C 43.5 °F /  6.4 °C 30.2in /  1021.7hPa WNW 2mph /  3.2km/h 5mph /  8km/h 89% 0in /  0.0mm 56 W/m2
09:40 46.6 °F /  8.1 °C 43.5 °F /  6.4 °C 30.2in /  1021.7hPa WSW 2mph /  3.2km/h 4mph /  6.4km/h 89% 0in /  0.0mm 58 W/m2
09:45 46.6 °F /  8.1 °C 43.2 °F /  6.2 °C 30.2in /  1021.7hPa WSW 2mph /  3.2km/h 4mph /  6.4km/h 88% 0in /  0.0mm 63 W/m2
09:50 46.6 °F /  8.1 °C 43.2 °F /  6.2 °C 30.2in /  1022.0hPa NW 0.9mph /  1.4km/h 4mph /  6.4km/h 88% 0in /  0.0mm 70 W/m2
09:55 46.8 °F /  8.2 °C 43.3 °F /  6.3 °C 30.2in /  1022.0hPa WNW 2mph /  3.2km/h 4mph /  6.4km/h 88% 0in /  0.0mm 74 W/m2
10:00 46.9 °F /  8.3 °C 43.5 °F /  6.4 °C 30.2in /  1022.0hPa NW 2.9mph /  4.7km/h 3mph /  4.8km/h 88% 0in /  0.0mm 86 W/m2
10:05 47.1 °F /  8.4 °C 43.7 °F /  6.5 °C 30.2in /  1022.4hPa WNW 0.9mph /  1.4km/h 2mph /  3.2km/h 88% 0in /  0.0mm 83 W/m2
10:10 47.5 °F /  8.6 °C 44.1 °F /  6.7 °C 30.2in /  1022.4hPa WNW 2mph /  3.2km/h 3mph /  4.8km/h 88% 0in /  0.0mm 86 W/m2
10:15 47.7 °F /  8.7 °C 44.1 °F /  6.7 °C 30.2in /  1022.4hPa WSW 4.9mph /  7.9km/h 5mph /  8km/h 87% 0in /  0.0mm 100 W/m2
10:20 47.8 °F /  8.8 °C 43.9 °F /  6.6 °C 30.2in /  1022.4hPa NW 4mph /  6.4km/h 7mph /  11.3km/h 86% 0in /  0.0mm 91 W/m2
10:25 48 °F /  8.9 °C 44.1 °F /  6.7 °C 30.2in /  1022.4hPa West 2mph /  3.2km/h 6mph /  9.7km/h 86% 0in /  0.0mm 86 W/m2
10:30 48.2 °F /  9 °C 44.2 °F /  6.8 °C 30.2in /  1022.7hPa NW 2mph /  3.2km/h 2mph /  3.2km/h 86% 0in /  0.0mm 107 W/m2
10:35 48.4 °F /  9.1 °C 44.4 °F /  6.9 °C 30.2in /  1022.7hPa NW 2mph /  3.2km/h 3mph /  4.8km/h 86% 0in /  0.0mm 104 W/m2
10:40 48.6 °F /  9.2 °C 44.6 °F /  7 °C 30.2in /  1022.7hPa Calm   1mph /  1.6km/h 86% 0in /  0.0mm 128 W/m2
10:45 48.7 °F /  9.3 °C 44.8 °F /  7.1 °C 30.2in /  1022.7hPa WNW 0.9mph /  1.4km/h 2mph /  3.2km/h 86% 0in /  0.0mm 120 W/m2
10:50 48.9 °F /  9.4 °C 44.6 °F /  7 °C 30.2in /  1023.0hPa West 0.9mph /  1.4km/h 3mph /  4.8km/h 85% 0in /  0.0mm 100 W/m2
10:55 48.9 °F /  9.4 °C 44.6 °F /  7 °C 30.2in /  1023.0hPa WNW 2mph /  3.2km/h 4mph /  6.4km/h 85% 0in /  0.0mm 98 W/m2
11:00 48.9 °F /  9.4 °C 44.2 °F /  6.8 °C 30.2in /  1023.0hPa WNW 2mph /  3.2km/h 4mph /  6.4km/h 84% 0in /  0.0mm 109 W/m2
11:05 48.9 °F /  9.4 °C 44.1 °F /  6.7 °C 30.2in /  1023.0hPa WNW 2mph /  3.2km/h 3mph /  4.8km/h 83% 0in /  0.0mm 109 W/m2
11:10 48.9 °F /  9.4 °C 44.1 °F /  6.7 °C 30.2in /  1023.4hPa WNW 0.9mph /  1.4km/h 2mph /  3.2km/h 83% 0in /  0.0mm 148 W/m2
11:15 49.1 °F /  9.5 °C 44.2 °F /  6.8 °C 30.2in /  1023.4hPa WNW 0.9mph /  1.4km/h 3mph /  4.8km/h 83% 0in /  0.0mm 142 W/m2
11:20 49.3 °F /  9.6 °C 44.4 °F /  6.9 °C 30.2in /  1023.4hPa NW 0.9mph /  1.4km/h 4mph /  6.4km/h 83% 0in /  0.0mm 163 W/m2
11:25 49.3 °F /  9.6 °C 43.7 °F /  6.5 °C 30.2in /  1023.4hPa SW 2.9mph /  4.7km/h 7mph /  11.3km/h 81% 0in /  0.0mm 134 W/m2
11:30 49.3 °F /  9.6 °C 44.1 °F /  6.7 °C 30.2in /  1023.4hPa West 0.9mph /  1.4km/h 3mph /  4.8km/h 82% 0in /  0.0mm 107 W/m2
11:35 49.3 °F /  9.6 °C 44.1 °F /  6.7 °C 30.2in /  1023.4hPa Calm   5mph /  8km/h 82% 0in /  0.0mm 77 W/m2
11:40 49.3 °F /  9.6 °C 44.1 °F /  6.7 °C 30.2in /  1023.4hPa WNW 2mph /  3.2km/h 2mph /  3.2km/h 82% 0in /  0.0mm 67 W/m2
11:45 49.3 °F /  9.6 °C 44.4 °F /  6.9 °C 30.2in /  1023.4hPa Calm   3mph /  4.8km/h 83% 0in /  0.0mm 83 W/m2
11:50 49.3 °F /  9.6 °C 44.1 °F /  6.7 °C 30.2in /  1023.4hPa Calm   2mph /  3.2km/h 82% 0in /  0.0mm 123 W/m2
11:55 49.5 °F /  9.7 °C 44.2 °F /  6.8 °C 30.2in /  1023.4hPa Calm     82% 0in /  0.0mm 158 W/m2
12:00 49.6 °F /  9.8 °C 44.1 °F /  6.7 °C 30.2in /  1023.4hPa WNW 2mph /  3.2km/h 2mph /  3.2km/h 81% 0in /  0.0mm 165 W/m2
12:05 49.8 °F /  9.9 °C 43.9 °F /  6.6 °C 30.2in /  1023.4hPa WNW 0.9mph /  1.4km/h 2mph /  3.2km/h 80% 0in /  0.0mm 162 W/m2
12:10 50.2 °F /  10.1 °C 43.9 °F /  6.6 °C 30.2in /  1023.4hPa Calm     79% 0in /  0.0mm 135 W/m2
12:15 50.4 °F /  10.2 °C 44.1 °F /  6.7 °C 30.2in /  1023.4hPa Calm   2mph /  3.2km/h 79% 0in /  0.0mm 81 W/m2
12:20 50.4 °F /  10.2 °C 43.7 °F /  6.5 °C 30.2in /  1023.4hPa NW 0.9mph /  1.4km/h 1mph /  1.6km/h 78% 0in /  0.0mm 97 W/m2
12:25 50.5 °F /  10.3 °C 43.5 °F /  6.4 °C 30.2in /  1023.4hPa Calm   2mph /  3.2km/h 77% 0in /  0.0mm 158 W/m2
12:30 50.5 °F /  10.3 °C 43 °F /  6.1 °C 30.2in /  1023.4hPa Calm   2mph /  3.2km/h 75% 0in /  0.0mm 105 W/m2
12:35 50.9 °F /  10.5 °C 43.5 °F /  6.4 °C 30.2in /  1023.4hPa SE 0.9mph /  1.4km/h 1mph /  1.6km/h 76% 0in /  0.0mm 81 W/m2
12:40 51.1 °F /  10.6 °C 43.5 °F /  6.4 °C 30.2in /  1023.4hPa WNW 2mph /  3.2km/h 4mph /  6.4km/h 75% 0in /  0.0mm 83 W/m2
12:45 51.1 °F /  10.6 °C 43.7 °F /  6.5 °C 30.2in /  1023.7hPa NNW 2mph /  3.2km/h 4mph /  6.4km/h 76% 0in /  0.0mm 120 W/m2
12:50 51.1 °F /  10.6 °C 43.2 °F /  6.2 °C 30.2in /  1023.7hPa WNW 6.9mph /  11.1km/h 7mph /  11.3km/h 74% 0in /  0.0mm 139 W/m2
12:55 51.3 °F /  10.7 °C 43.5 °F /  6.4 °C 30.2in /  1023.7hPa WNW 4mph /  6.4km/h 5mph /  8km/h 75% 0in /  0.0mm 135 W/m2
13:01 51.1 °F /  10.6 °C 43.5 °F /  6.4 °C 30.2in /  1023.7hPa WNW 2.9mph /  4.7km/h 4mph /  6.4km/h 75% 0in /  0.0mm 91 W/m2
13:06 50.9 °F /  10.5 °C 43.5 °F /  6.4 °C 30.2in /  1023.7hPa NNW 4mph /  6.4km/h 7mph /  11.3km/h 76% 0in /  0.0mm 56 W/m2
13:11 50.7 °F /  10.4 °C 43.2 °F /  6.2 °C 30.2in /  1023.7hPa NW 2.9mph /  4.7km/h 6mph /  9.7km/h 75% 0in /  0.0mm 53 W/m2
13:16 50.5 °F /  10.3 °C 43.3 °F /  6.3 °C 30.2in /  1023.7hPa WNW 2mph /  3.2km/h 4mph /  6.4km/h 76% 0in /  0.0mm 62 W/m2
13:21 50.5 °F /  10.3 °C 43.5 °F /  6.4 °C 30.2in /  1023.7hPa NW 2mph /  3.2km/h 3mph /  4.8km/h 77% 0in /  0.0mm 77 W/m2
13:26 50.5 °F /  10.3 °C 43.5 °F /  6.4 °C 30.2in /  1023.7hPa WNW 2mph /  3.2km/h 4mph /  6.4km/h 77% 0in /  0.0mm 95 W/m2
13:31 50.5 °F /  10.3 °C 43.5 °F /  6.4 °C 30.2in /  1023.7hPa WNW 2.9mph /  4.7km/h 5mph /  8km/h 77% 0in /  0.0mm 111 W/m2
13:36 50.7 °F /  10.4 °C 44.1 °F /  6.7 °C 30.2in /  1024.0hPa WNW 4mph /  6.4km/h 4mph /  6.4km/h 78% 0in /  0.0mm 120 W/m2
13:41 50.7 °F /  10.4 °C 44.1 °F /  6.7 °C 30.2in /  1024.0hPa NW 2mph /  3.2km/h 3mph /  4.8km/h 78% 0in /  0.0mm 120 W/m2
13:46 50.9 °F /  10.5 °C 44.2 °F /  6.8 °C 30.2in /  1024.0hPa NW 0.9mph /  1.4km/h 5mph /  8km/h 78% 0in /  0.0mm 105 W/m2
13:51 50.9 °F /  10.5 °C 43.9 °F /  6.6 °C 30.2in /  1024.0hPa WNW 0.9mph /  1.4km/h 3mph /  4.8km/h 77% 0in /  0.0mm 111 W/m2
13:56 51.1 °F /  10.6 °C 43.7 °F /  6.5 °C 30.2in /  1024.0hPa North 0.9mph /  1.4km/h 3mph /  4.8km/h 76% 0in /  0.0mm 114 W/m2
14:01 51.1 °F /  10.6 °C 44.1 °F /  6.7 °C 30.2in /  1024.0hPa WNW 2mph /  3.2km/h 4mph /  6.4km/h 77% 0in /  0.0mm 171 W/m2
14:06 51.1 °F /  10.6 °C 44.4 °F /  6.9 °C 30.2in /  1024.0hPa West 2mph /  3.2km/h 7mph /  11.3km/h 78% 0in /  0.0mm 156 W/m2
14:11 51.3 °F /  10.7 °C 44.2 °F /  6.8 °C 30.2in /  1024.0hPa WNW 2mph /  3.2km/h 4mph /  6.4km/h 77% 0in /  0.0mm 139 W/m2
14:16 51.4 °F /  10.8 °C 44.1 °F /  6.7 °C 30.2in /  1024.0hPa NNE 0.9mph /  1.4km/h 4mph /  6.4km/h 76% 0in /  0.0mm 134 W/m2
14:21 51.4 °F /  10.8 °C 43.7 °F /  6.5 °C 30.2in /  1024.0hPa Calm   2mph /  3.2km/h 75% 0in /  0.0mm 142 W/m2
14:26 51.4 °F /  10.8 °C 43.5 °F /  6.4 °C 30.2in /  1024.0hPa WNW 2mph /  3.2km/h 4mph /  6.4km/h 74% 0in /  0.0mm 162 W/m2
14:31 51.6 °F /  10.9 °C 43.5 °F /  6.4 °C 30.2in /  1024.0hPa NNE 0.9mph /  1.4km/h 2mph /  3.2km/h 74% 0in /  0.0mm 158 W/m2
14:36 51.6 °F /  10.9 °C 43.5 °F /  6.4 °C 30.3in /  1024.4hPa North 0.9mph /  1.4km/h 5mph /  8km/h 74% 0in /  0.0mm 137 W/m2
14:41 51.6 °F /  10.9 °C 43.3 °F /  6.3 °C 30.3in /  1024.4hPa North 2.9mph /  4.7km/h 4mph /  6.4km/h 73% 0in /  0.0mm 128 W/m2
14:46 52 °F /  11.1 °C 43.5 °F /  6.4 °C 30.3in /  1024.4hPa NW 4mph /  6.4km/h 5mph /  8km/h 73% 0in /  0.0mm 118 W/m2
14:51 51.8 °F /  11 °C 43 °F /  6.1 °C 30.3in /  1024.4hPa West 2mph /  3.2km/h 6mph /  9.7km/h 72% 0in /  0.0mm 107 W/m2
14:56 51.6 °F /  10.9 °C 43.3 °F /  6.3 °C 30.3in /  1024.4hPa East 0.9mph /  1.4km/h 2mph /  3.2km/h 73% 0in /  0.0mm 83 W/m2
15:01 51.6 °F /  10.9 °C 43.3 °F /  6.3 °C 30.3in /  1024.7hPa Calm   6mph /  9.7km/h 73% 0in /  0.0mm 67 W/m2
15:06 51.6 °F /  10.9 °C 43.3 °F /  6.3 °C 30.3in /  1024.7hPa Calm   4mph /  6.4km/h 73% 0in /  0.0mm 56 W/m2
15:11 51.4 °F /  10.8 °C 43.5 °F /  6.4 °C 30.3in /  1024.7hPa NW 2mph /  3.2km/h 7mph /  11.3km/h 74% 0in /  0.0mm 54 W/m2
15:16 51.4 °F /  10.8 °C 43.7 °F /  6.5 °C 30.3in /  1024.7hPa WSW 4mph /  6.4km/h 7mph /  11.3km/h 75% 0in /  0.0mm 56 W/m2
15:21 51.1 °F /  10.6 °C 43.5 °F /  6.4 °C 30.3in /  1024.7hPa WNW 2.9mph /  4.7km/h 4mph /  6.4km/h 75% 0in /  0.0mm 60 W/m2
15:26 51.1 °F /  10.6 °C 43.5 °F /  6.4 °C 30.3in /  1024.7hPa WNW 8.1mph /  13km/h 8mph /  12.9km/h 75% 0in /  0.0mm 54 W/m2
15:31 50.9 °F /  10.5 °C 43.3 °F /  6.3 °C 30.3in /  1025.1hPa West 2mph /  3.2km/h 7mph /  11.3km/h 75% 0in /  0.0mm 51 W/m2
15:36 50.9 °F /  10.5 °C 43.3 °F /  6.3 °C 30.3in /  1025.1hPa NW 0.9mph /  1.4km/h 2mph /  3.2km/h 75% 0in /  0.0mm 42 W/m2
15:41 50.9 °F /  10.5 °C 43.3 °F /  6.3 °C 30.3in /  1025.1hPa North 0.9mph /  1.4km/h 5mph /  8km/h 75% 0in /  0.0mm 39 W/m2
15:46 50.9 °F /  10.5 °C 43.5 °F /  6.4 °C 30.3in /  1025.1hPa NW 2mph /  3.2km/h 3mph /  4.8km/h 76% 0in /  0.0mm 39 W/m2
15:51 50.9 °F /  10.5 °C 43.5 °F /  6.4 °C 30.3in /  1025.1hPa NW 2mph /  3.2km/h 4mph /  6.4km/h 76% 0in /  0.0mm 44 W/m2
15:56 50.9 °F /  10.5 °C 43.5 °F /  6.4 °C 30.3in /  1025.1hPa Calm   2mph /  3.2km/h 76% 0in /  0.0mm 42 W/m2
16:01 50.7 °F /  10.4 °C 43.5 °F /  6.4 °C 30.3in /  1025.1hPa NW 2mph /  3.2km/h 4mph /  6.4km/h 76% 0in /  0.0mm 40 W/m2
16:06 50.7 °F /  10.4 °C 43.2 °F /  6.2 °C 30.3in /  1025.1hPa Calm   1mph /  1.6km/h 75% 0in /  0.0mm 35 W/m2
16:36 50.2 °F /  10.1 °C 43.5 °F /  6.4 °C 30.3in /  1025.4hPa Calm   2mph /  3.2km/h 78% 0in /  0.0mm 26 W/m2
16:41 50 °F /  10 °C 43.3 °F /  6.3 °C 30.3in /  1025.4hPa Calm     78% 0in /  0.0mm 21 W/m2
16:46 49.6 °F /  9.8 °C 43.3 °F /  6.3 °C 30.3in /  1025.4hPa West 0.9mph /  1.4km/h 2mph /  3.2km/h 79% 0in /  0.0mm 18 W/m2
16:51 49.5 °F /  9.7 °C 43.5 °F /  6.4 °C 30.3in /  1025.7hPa Calm     80% 0in /  0.0mm 12 W/m2
16:56 49.3 °F /  9.6 °C 43.7 °F /  6.5 °C 30.3in /  1025.7hPa WNW 0.9mph /  1.4km/h 2mph /  3.2km/h 81% 0in /  0.0mm 11 W/m2
17:01 48.9 °F /  9.4 °C 43.3 °F /  6.3 °C 30.3in /  1025.7hPa Calm   1mph /  1.6km/h 81% 0in /  0.0mm 7 W/m2
17:06 48.7 °F /  9.3 °C 43.5 °F /  6.4 °C 30.3in /  1025.7hPa Calm   2mph /  3.2km/h 82% 0in /  0.0mm 5 W/m2
17:11 48.6 °F /  9.2 °C 43.3 °F /  6.3 °C 30.3in /  1025.7hPa WSW 2mph /  3.2km/h 3mph /  4.8km/h 82% 0in /  0.0mm 0 W/m2
17:16 48.4 °F /  9.1 °C 43.2 °F /  6.2 °C 30.3in /  1025.7hPa WSW 0.9mph /  1.4km/h 2mph /  3.2km/h 82% 0in /  0.0mm 0 W/m2
17:21 48.4 °F /  9.1 °C 43.2 °F /  6.2 °C 30.3in /  1025.7hPa WSW 0.9mph /  1.4km/h 3mph /  4.8km/h 82% 0in /  0.0mm 0 W/m2
17:26 48 °F /  8.9 °C 43.2 °F /  6.2 °C 30.3in /  1025.7hPa Calm   1mph /  1.6km/h 83% 0in /  0.0mm 0 W/m2
17:31 48 °F /  8.9 °C 43.2 °F /  6.2 °C 30.3in /  1025.7hPa Calm   1mph /  1.6km/h 83% 0in /  0.0mm 0 W/m2
17:36 47.8 °F /  8.8 °C 43.2 °F /  6.2 °C 30.3in /  1025.7hPa Calm     84% 0in /  0.0mm 0 W/m2
17:41 47.7 °F /  8.7 °C 43 °F /  6.1 °C 30.3in /  1025.7hPa Calm     84% 0in /  0.0mm 0 W/m2
17:46 47.5 °F /  8.6 °C 43.2 °F /  6.2 °C 30.3in /  1025.7hPa Calm     85% 0in /  0.0mm 0 W/m2
17:51 47.1 °F /  8.4 °C 43.2 °F /  6.2 °C 30.3in /  1026.1hPa WSW 2.9mph /  4.7km/h 4mph /  6.4km/h 86% 0in /  0.0mm 0 W/m2
17:56 46.9 °F /  8.3 °C 43 °F /  6.1 °C 30.3in /  1026.1hPa West 2.9mph /  4.7km/h 4mph /  6.4km/h 86% 0in /  0.0mm 0 W/m2
18:01 46.9 °F /  8.3 °C 43 °F /  6.1 °C 30.3in /  1026.1hPa WNW 0.9mph /  1.4km/h 3mph /  4.8km/h 86% 0in /  0.0mm 0 W/m2
18:06 46.9 °F /  8.3 °C 43.3 °F /  6.3 °C 30.3in /  1026.1hPa WSW 2.9mph /  4.7km/h 3mph /  4.8km/h 87% 0in /  0.0mm 0 W/m2
18:11 46.9 °F /  8.3 °C 43 °F /  6.1 °C 30.3in /  1026.1hPa Calm   2mph /  3.2km/h 86% 0in /  0.0mm 0 W/m2
18:16 46.9 °F /  8.3 °C 43 °F /  6.1 °C 30.3in /  1026.4hPa Calm   1mph /  1.6km/h 86% 0in /  0.0mm 0 W/m2
18:21 46.8 °F /  8.2 °C 42.8 °F /  6 °C 30.3in /  1026.4hPa Calm     86% 0in /  0.0mm 0 W/m2
18:26 46.6 °F /  8.1 °C 43 °F /  6.1 °C 30.3in /  1026.4hPa West 0.9mph /  1.4km/h 2mph /  3.2km/h 87% 0in /  0.0mm 0 W/m2
18:31 46.4 °F /  8 °C 42.8 °F /  6 °C 30.3in /  1026.4hPa West 2mph /  3.2km/h 3mph /  4.8km/h 87% 0in /  0.0mm 0 W/m2
18:36 46.6 °F /  8.1 °C 43.2 °F /  6.2 °C 30.3in /  1026.4hPa Calm   2mph /  3.2km/h 88% 0in /  0.0mm 0 W/m2
18:41 46.8 °F /  8.2 °C 43.2 °F /  6.2 °C 30.3in /  1026.8hPa Calm   2mph /  3.2km/h 87% 0in /  0.0mm 0 W/m2
18:46 46.8 °F /  8.2 °C 43.2 °F /  6.2 °C 30.3in /  1026.8hPa Calm   1mph /  1.6km/h 87% 0in /  0.0mm 0 W/m2
18:51 46.6 °F /  8.1 °C 43.2 °F /  6.2 °C 30.3in /  1026.8hPa Calm   1mph /  1.6km/h 88% 0in /  0.0mm 0 W/m2
18:56 46.4 °F /  8 °C 43 °F /  6.1 °C 30.3in /  1026.8hPa Calm   1mph /  1.6km/h 88% 0in /  0.0mm 0 W/m2
19:01 46.2 °F /  7.9 °C 42.8 °F /  6 °C 30.3in /  1027.1hPa WSW 0.9mph /  1.4km/h 2mph /  3.2km/h 88% 0in /  0.0mm 0 W/m2
19:06 46.2 °F /  7.9 °C 43.2 °F /  6.2 °C 30.3in /  1027.1hPa West 2mph /  3.2km/h 2mph /  3.2km/h 89% 0in /  0.0mm 0 W/m2
19:11 46.2 °F /  7.9 °C 43.2 °F /  6.2 °C 30.3in /  1027.1hPa West 0.9mph /  1.4km/h 4mph /  6.4km/h 89% 0in /  0.0mm 0 W/m2
19:16 46.2 °F /  7.9 °C 43.2 °F /  6.2 °C 30.3in /  1027.1hPa Calm   2mph /  3.2km/h 89% 0in /  0.0mm 0 W/m2
19:21 46 °F /  7.8 °C 43 °F /  6.1 °C 30.3in /  1027.1hPa West 2mph /  3.2km/h 4mph /  6.4km/h 89% 0in /  0.0mm 0 W/m2
19:26 46 °F /  7.8 °C 43.3 °F /  6.3 °C 30.3in /  1027.1hPa West 2mph /  3.2km/h 3mph /  4.8km/h 90% 0in /  0.0mm 0 W/m2
19:31 46 °F /  7.8 °C 43 °F /  6.1 °C 30.3in /  1027.1hPa WNW 2.9mph /  4.7km/h 4mph /  6.4km/h 89% 0in /  0.0mm 0 W/m2
19:36 46.4 °F /  8 °C 43.3 °F /  6.3 °C 30.3in /  1027.4hPa West 2.9mph /  4.7km/h 4mph /  6.4km/h 89% 0in /  0.0mm 0 W/m2
19:41 46.6 °F /  8.1 °C 43.2 °F /  6.2 °C 30.3in /  1027.4hPa West 2mph /  3.2km/h 3mph /  4.8km/h 88% 0in /  0.0mm 0 W/m2
19:46 46.6 °F /  8.1 °C 43.2 °F /  6.2 °C 30.3in /  1027.4hPa West 2.9mph /  4.7km/h 4mph /  6.4km/h 88% 0in /  0.0mm 0 W/m2
19:51 46.6 °F /  8.1 °C 43.2 °F /  6.2 °C 30.3in /  1027.4hPa West 0.9mph /  1.4km/h 2mph /  3.2km/h 88% 0in /  0.0mm 0 W/m2
19:56 46.2 °F /  7.9 °C 42.8 °F /  6 °C 30.3in /  1027.4hPa WNW 2mph /  3.2km/h 4mph /  6.4km/h 88% 0in /  0.0mm 0 W/m2
20:01 45.7 °F /  7.6 °C 42.3 °F /  5.7 °C 30.3in /  1027.4hPa WNW 4mph /  6.4km/h 4mph /  6.4km/h 88% 0in /  0.0mm 0 W/m2
20:06 45.5 °F /  7.5 °C 42.4 °F /  5.8 °C 30.3in /  1027.4hPa WSW 2.9mph /  4.7km/h 4mph /  6.4km/h 89% 0in /  0.0mm 0 W/m2
20:11 45.5 °F /  7.5 °C 42.8 °F /  6 °C 30.3in /  1027.4hPa WNW 2mph /  3.2km/h 4mph /  6.4km/h 90% 0in /  0.0mm 0 W/m2
20:16 45.7 °F /  7.6 °C 42.6 °F /  5.9 °C 30.3in /  1027.4hPa WNW 0.9mph /  1.4km/h 3mph /  4.8km/h 89% 0in /  0.0mm 0 W/m2
20:21 45.9 °F /  7.7 °C 42.8 °F /  6 °C 30.3in /  1027.4hPa West 2mph /  3.2km/h 3mph /  4.8km/h 89% 0in /  0.0mm 0 W/m2
20:26 45.9 °F /  7.7 °C 42.8 °F /  6 °C 30.3in /  1027.4hPa WSW 0.9mph /  1.4km/h 4mph /  6.4km/h 89% 0in /  0.0mm 0 W/m2
20:32 45.7 °F /  7.6 °C 42.6 °F /  5.9 °C 30.3in /  1027.4hPa Calm     89% 0in /  0.0mm 0 W/m2
20:37 45.3 °F /  7.4 °C 42.3 °F /  5.7 °C 30.3in /  1027.4hPa Calm   4mph /  6.4km/h 89% 0in /  0.0mm 0 W/m2
20:42 45.1 °F /  7.3 °C 42.1 °F /  5.6 °C 30.3in /  1027.4hPa West 2.9mph /  4.7km/h 3mph /  4.8km/h 89% 0in /  0.0mm 0 W/m2
20:47 45 °F /  7.2 °C 42.3 °F /  5.7 °C 30.3in /  1027.4hPa Calm   1mph /  1.6km/h 90% 0in /  0.0mm 0 W/m2
20:52 44.4 °F /  6.9 °C 41.4 °F /  5.2 °C 30.3in /  1027.4hPa Calm     89% 0in /  0.0mm 0 W/m2
20:57 44.1 °F /  6.7 °C 41.4 °F /  5.2 °C 30.3in /  1027.4hPa Calm   1mph /  1.6km/h 90% 0in /  0.0mm 0 W/m2
21:02 43.7 °F /  6.5 °C 41 °F /  5 °C 30.3in /  1027.4hPa Calm     90% 0in /  0.0mm 0 W/m2
21:07 43.3 °F /  6.3 °C 40.6 °F /  4.8 °C 30.4in /  1027.8hPa Calm     90% 0in /  0.0mm 0 W/m2
21:12 43.2 °F /  6.2 °C 40.6 °F /  4.8 °C 30.4in /  1027.8hPa Calm     91% 0in /  0.0mm 0 W/m2
21:17 43 °F /  6.1 °C 40.5 °F /  4.7 °C 30.4in /  1027.8hPa Calm     91% 0in /  0.0mm 0 W/m2
21:22 42.8 °F /  6 °C 40.6 °F /  4.8 °C 30.4in /  1027.8hPa Calm     92% 0in /  0.0mm 0 W/m2
21:27 42.6 °F /  5.9 °C 40.5 °F /  4.7 °C 30.4in /  1027.8hPa Calm     92% 0in /  0.0mm 0 W/m2
21:32 42.4 °F /  5.8 °C 40.3 °F /  4.6 °C 30.4in /  1027.8hPa Calm     92% 0in /  0.0mm 0 W/m2
21:37 42.4 °F /  5.8 °C 40.3 °F /  4.6 °C 30.4in /  1028.1hPa Calm     92% 0in /  0.0mm 0 W/m2
21:42 42.3 °F /  5.7 °C 40.5 °F /  4.7 °C 30.4in /  1027.8hPa Calm     93% 0in /  0.0mm 0 W/m2
21:47 42.3 °F /  5.7 °C 40.5 °F /  4.7 °C 30.4in /  1028.1hPa Calm     93% 0in /  0.0mm 0 W/m2
21:52 42.3 °F /  5.7 °C 40.5 °F /  4.7 °C 30.4in /  1028.1hPa Calm     93% 0in /  0.0mm 0 W/m2
21:57 42.3 °F /  5.7 °C 40.6 °F /  4.8 °C 30.4in /  1028.1hPa Calm     94% 0in /  0.0mm 0 W/m2
22:02 42.3 °F /  5.7 °C 40.6 °F /  4.8 °C 30.4in /  1028.1hPa Calm     94% 0in /  0.0mm 0 W/m2
22:07 42.3 °F /  5.7 °C 40.6 °F /  4.8 °C 30.4in /  1028.5hPa Calm     94% 0in /  0.0mm 0 W/m2
22:12 42.4 °F /  5.8 °C 40.8 °F /  4.9 °C 30.4in /  1028.5hPa Calm     94% 0in /  0.0mm 0 W/m2
22:17 42.4 °F /  5.8 °C 40.8 °F /  4.9 °C 30.4in /  1028.5hPa Calm     94% 0in /  0.0mm 0 W/m2
22:22 42.4 °F /  5.8 °C 40.8 °F /  4.9 °C 30.4in /  1028.5hPa Calm     94% 0in /  0.0mm 0 W/m2
22:27 42.4 °F /  5.8 °C 40.8 °F /  4.9 °C 30.4in /  1028.5hPa Calm     94% 0in /  0.0mm 0 W/m2
22:32 42.6 °F /  5.9 °C 41 °F /  5 °C 30.4in /  1028.5hPa Calm     94% 0in /  0.0mm 0 W/m2
22:37 42.6 °F /  5.9 °C 41 °F /  5 °C 30.4in /  1028.5hPa Calm     94% 0in /  0.0mm 0 W/m2
22:42 42.6 °F /  5.9 °C 41.4 °F /  5.2 °C 30.4in /  1028.5hPa Calm     95% 0in /  0.0mm 0 W/m2
22:47 42.8 °F /  6 °C 41.5 °F /  5.3 °C 30.4in /  1028.5hPa Calm     95% 0in /  0.0mm 0 W/m2
22:52 42.8 °F /  6 °C 41.5 °F /  5.3 °C 30.4in /  1028.5hPa Calm     95% 0in /  0.0mm 0 W/m2
22:57 43 °F /  6.1 °C 41.7 °F /  5.4 °C 30.4in /  1028.5hPa Calm     95% 0in /  0.0mm 0 W/m2
23:02 43 °F /  6.1 °C 41.7 °F /  5.4 °C 30.4in /  1028.8hPa Calm     95% 0in /  0.0mm 0 W/m2
23:07 43.2 °F /  6.2 °C 41.9 °F /  5.5 °C 30.4in /  1028.8hPa Calm     95% 0in /  0.0mm 0 W/m2
23:12 43.2 °F /  6.2 °C 41.9 °F /  5.5 °C 30.4in /  1028.8hPa Calm     95% 0in /  0.0mm 0 W/m2
23:17 43.2 °F /  6.2 °C 41.9 °F /  5.5 °C 30.4in /  1028.8hPa Calm     95% 0in /  0.0mm 0 W/m2
23:22 43.2 °F /  6.2 °C 41.9 °F /  5.5 °C 30.4in /  1028.8hPa West 0.9mph /  1.4km/h 2mph /  3.2km/h 95% 0in /  0.0mm 0 W/m2
23:27 43.3 °F /  6.3 °C 42.1 °F /  5.6 °C 30.4in /  1028.8hPa WSW 2mph /  3.2km/h 3mph /  4.8km/h 95% 0in /  0.0mm 0 W/m2
23:32 43.7 °F /  6.5 °C 42.4 °F /  5.8 °C 30.4in /  1028.8hPa West 0.9mph /  1.4km/h 4mph /  6.4km/h 95% 0in /  0.0mm 0 W/m2
23:37 44.1 °F /  6.7 °C 42.8 °F /  6 °C 30.4in /  1028.8hPa Calm   1mph /  1.6km/h 95% 0in /  0.0mm 0 W/m2
23:42 44.2 °F /  6.8 °C 43 °F /  6.1 °C 30.4in /  1028.8hPa Calm   4mph /  6.4km/h 95% 0in /  0.0mm 0 W/m2
23:47 44.2 °F /  6.8 °C 43 °F /  6.1 °C 30.4in /  1028.8hPa West 2mph /  3.2km/h 2mph /  3.2km/h 95% 0in /  0.0mm 0 W/m2
23:52 44.4 °F /  6.9 °C 43.2 °F /  6.2 °C 30.4in /  1028.8hPa Calm     95% 0in /  0.0mm 0 W/m2
23:57 44.4 °F /  6.9 °C 43.2 °F /  6.2 °C 30.4in /  1028.8hPa Calm     95% 0in /  0.0mm 0 W/m2
Juneau County Weather
Compliments of Weather Underground - 4 mb